createdAt,value
2018-03-23T00:02:28.298Z,99642.73
2018-03-23T00:05:29.563Z,99646.25
2018-03-23T00:08:30.821Z,99634.43
2018-03-23T00:11:32.816Z,99640.97
2018-03-23T00:14:34.095Z,99636.58
2018-03-23T00:17:35.346Z,99646.39
2018-03-23T00:20:36.573Z,99635.44
2018-03-23T00:23:37.810Z,99635.55
2018-03-23T00:26:39.047Z,99637.99
2018-03-23T00:29:40.290Z,99639.22
2018-03-23T00:32:41.534Z,99634.44
2018-03-23T00:35:43.507Z,99622.11
2018-03-23T00:38:45.508Z,99636.63
2018-03-23T00:41:46.746Z,99625.72
2018-03-23T00:44:48.787Z,99630.16
2018-03-23T00:47:50.069Z,99633.45
2018-03-23T00:50:51.297Z,99634.06
2018-03-23T00:53:52.565Z,99625.34
2018-03-23T00:56:53.802Z,99622.90
2018-03-23T00:59:55.073Z,99619.86
2018-03-23T01:02:56.341Z,99625.72
2018-03-23T01:05:57.597Z,99619.63
2018-03-23T01:08:59.596Z,99618.59
2018-03-23T01:12:00.835Z,99614.60
2018-03-23T01:15:02.095Z,99603.39
2018-03-23T01:18:04.079Z,99601.30
2018-03-23T01:21:05.324Z,99602.31
2018-03-23T01:24:07.325Z,99597.16
2018-03-23T01:27:08.579Z,99589.41
2018-03-23T01:30:10.594Z,99595.44
2018-03-23T01:33:11.858Z,99585.44
2018-03-23T01:36:13.100Z,99583.40
2018-03-23T01:39:14.365Z,99580.39
2018-03-23T01:42:15.596Z,99574.55
2018-03-23T01:45:17.586Z,99572.70
2018-03-23T01:48:19.638Z,99572.97
2018-03-23T01:51:20.894Z,99571.34
2018-03-23T01:54:22.161Z,99561.67
2018-03-23T01:57:23.410Z,99570.61
2018-03-23T02:00:24.648Z,99565.40
2018-03-23T02:03:25.922Z,99562.59
2018-03-23T02:06:27.175Z,99556.48
2018-03-23T02:09:28.410Z,99560.44
2018-03-23T02:12:30.411Z,99555.23
2018-03-23T02:15:31.631Z,99556.38
2018-03-23T02:18:32.889Z,99541.05
2018-03-23T02:21:34.118Z,99538.78
2018-03-23T02:24:35.602Z,99538.72
2018-03-23T02:27:36.857Z,99538.12
2018-03-23T02:30:38.131Z,99534.40
2018-03-23T02:33:39.361Z,99526.13
2018-03-23T02:36:40.598Z,99522.91
2018-03-23T02:39:42.576Z,99522.38
2018-03-23T02:42:44.577Z,99515.75
2018-03-23T02:45:45.824Z,99506.16
2018-03-23T02:48:47.832Z,99505.91
2018-03-23T02:51:49.075Z,99512.27
2018-03-23T02:54:50.366Z,99506.47
2018-03-23T02:57:51.618Z,99515.91
2018-03-23T03:00:52.863Z,99504.38
2018-03-23T03:03:54.888Z,99504.84
2018-03-23T03:06:56.140Z,99503.35
2018-03-23T03:09:57.395Z,99487.12
2018-03-23T03:12:58.653Z,99487.69
2018-03-23T03:15:59.907Z,99486.92
2018-03-23T03:19:01.147Z,99490.75
2018-03-23T03:22:03.132Z,99487.80
2018-03-23T03:25:05.137Z,99470.16
2018-03-23T03:28:06.387Z,99471.83
2018-03-23T03:31:07.806Z,99470.38
2018-03-23T03:34:09.032Z,99467.40
2018-03-23T03:37:10.283Z,99466.27
2018-03-23T03:40:11.553Z,99457.94
2018-03-23T03:43:12.794Z,99455.09
2018-03-23T03:46:14.795Z,99457.12
2018-03-23T03:49:16.042Z,99453.55
2018-03-23T03:52:18.012Z,99455.95
2018-03-23T03:55:19.992Z,99455.95
2018-03-23T03:58:21.982Z,99456.73
2018-03-23T04:01:23.223Z,99443.98
2018-03-23T04:04:24.460Z,99449.61
2018-03-23T04:07:25.684Z,99455.56
2018-03-23T04:10:26.945Z,99446.45
2018-03-23T04:13:28.206Z,99444.98
2018-03-23T04:16:29.465Z,99443.62
2018-03-23T04:19:30.704Z,99434.17
2018-03-23T04:22:31.929Z,99441.97
2018-03-23T04:25:33.170Z,99434.06
2018-03-23T04:28:34.395Z,99435.94
2018-03-23T04:31:36.384Z,99428.67
2018-03-23T04:34:38.357Z,99436.73
2018-03-23T04:37:40.341Z,99427.38
2018-03-23T04:40:42.331Z,99433.47
2018-03-23T04:43:44.341Z,99429.00
2018-03-23T04:46:45.544Z,99421.02
2018-03-23T04:49:46.835Z,99423.28
2018-03-23T04:52:48.834Z,99419.60
2018-03-23T04:55:50.076Z,99417.05
2018-03-23T04:58:52.324Z,99405.58
2018-03-23T05:01:53.389Z,99413.23
2018-03-23T05:04:54.642Z,99404.23
2018-03-23T05:07:55.884Z,99404.77
2018-03-23T05:10:57.131Z,99398.33
2018-03-23T05:13:58.360Z,99396.37
2018-03-23T05:16:59.576Z,99395.27
2018-03-23T05:20:00.841Z,99398.53
2018-03-23T05:23:02.084Z,99392.53
2018-03-23T05:26:03.328Z,99388.59
2018-03-23T05:29:04.594Z,99393.74
2018-03-23T05:32:05.815Z,99394.74
2018-03-23T05:35:07.062Z,99397.34
2018-03-23T05:38:08.312Z,99390.33
2018-03-23T05:41:09.575Z,99385.27
2018-03-23T05:44:10.829Z,99394.58
2018-03-23T05:47:12.044Z,99391.52
2018-03-23T05:50:13.314Z,99391.72
2018-03-23T05:53:14.600Z,99381.09
2018-03-23T05:56:15.827Z,99396.00
2018-03-23T05:59:17.059Z,99385.36
2018-03-23T06:02:18.288Z,99389.64
2018-03-23T06:05:19.527Z,99384.91
2018-03-23T06:08:20.735Z,99379.45
2018-03-23T06:11:21.982Z,99379.33
2018-03-23T06:14:23.287Z,99378.91
2018-03-23T06:17:25.283Z,99382.20
2018-03-23T06:20:26.562Z,99374.20
2018-03-23T06:23:28.534Z,99380.42
2018-03-23T06:29:37.770Z,99380.64
2018-03-23T06:32:38.988Z,99379.73
2018-03-23T06:35:40.983Z,99384.75
2018-03-23T06:38:42.249Z,99381.17
2018-03-23T06:41:43.498Z,99376.37
2018-03-23T06:44:45.480Z,99379.55
2018-03-23T06:47:54.406Z,99370.45
2018-03-23T06:50:55.754Z,99375.02
2018-03-23T06:53:57.002Z,99375.77
2018-03-23T06:56:58.248Z,99366.16
2018-03-23T06:59:59.464Z,99374.84
2018-03-23T07:03:00.710Z,99372.11
2018-03-23T07:06:01.948Z,99376.23
2018-03-23T07:09:03.235Z,99381.67
2018-03-23T07:12:04.470Z,99378.66
2018-03-23T07:15:05.736Z,99383.86
2018-03-23T07:18:07.007Z,99384.61
2018-03-23T07:21:08.267Z,99384.11
2018-03-23T07:24:09.694Z,99384.27
2018-03-23T07:27:11.716Z,99377.88
2018-03-23T07:30:12.954Z,99381.67
2018-03-23T07:33:14.250Z,99380.31
2018-03-23T07:36:15.499Z,99388.17
2018-03-23T07:39:16.758Z,99387.88
2018-03-23T07:42:18.011Z,99377.48
2018-03-23T07:45:19.223Z,99380.89
2018-03-23T07:48:20.450Z,99380.92
2018-03-23T07:51:21.717Z,99368.41
2018-03-23T07:54:24.035Z,99354.69
2018-03-23T07:57:26.043Z,99365.38
2018-03-23T08:00:27.999Z,99360.29
2018-03-23T08:03:29.237Z,99367.36
2018-03-23T08:06:30.501Z,99358.59
2018-03-23T08:09:31.756Z,99362.55
2018-03-23T08:12:33.010Z,99364.09
2018-03-23T08:15:34.251Z,99368.06
2018-03-23T08:18:35.511Z,99363.66
2018-03-23T08:21:36.795Z,99364.31
2018-03-23T08:24:38.059Z,99350.87
2018-03-23T08:27:39.279Z,99356.24
2018-03-23T08:30:40.507Z,99349.63
2018-03-23T08:33:41.750Z,99341.75
2018-03-23T08:36:42.994Z,99341.39
2018-03-23T08:39:44.222Z,99333.45
2018-03-23T08:42:45.536Z,99325.84
2018-03-23T08:45:46.948Z,99338.48
2018-03-23T08:48:49.041Z,99331.84
2018-03-23T08:51:50.307Z,99332.45
2018-03-23T08:54:52.306Z,99323.05
2018-03-23T08:57:54.269Z,99320.86
2018-03-23T09:00:56.271Z,99316.38
2018-03-23T09:03:57.538Z,99319.27
2018-03-23T09:06:58.791Z,99320.83
2018-03-23T09:10:00.782Z,99319.41
2018-03-23T09:13:02.009Z,99317.70
2018-03-23T09:16:03.253Z,99320.83
2018-03-23T09:19:04.573Z,99315.34
2018-03-23T09:22:05.826Z,99311.53
2018-03-23T09:25:07.821Z,99303.70
2018-03-23T09:28:14.123Z,99309.24
2018-03-23T09:31:15.425Z,99292.03
2018-03-23T09:34:16.691Z,99299.00
2018-03-23T09:37:17.987Z,99287.44
2018-03-23T09:40:19.228Z,99292.25
2018-03-23T09:43:21.255Z,99290.59
2018-03-23T09:46:22.534Z,99277.41
2018-03-23T09:49:23.773Z,99274.64
2018-03-23T09:52:25.035Z,99278.81
2018-03-23T09:55:26.343Z,99276.42
2018-03-23T09:58:27.630Z,99268.91
2018-03-23T10:01:29.682Z,99259.45
2018-03-23T10:04:30.973Z,99253.41
2018-03-23T10:07:32.988Z,99259.20
2018-03-23T10:13:42.223Z,99251.50
2018-03-23T10:16:43.463Z,99246.81
2018-03-23T10:19:44.734Z,99245.86
2018-03-23T10:22:46.011Z,99236.59
2018-03-23T10:25:47.287Z,99238.02
2018-03-23T10:28:49.299Z,99236.55
2018-03-23T10:31:50.532Z,99225.64
2018-03-23T10:34:52.526Z,99221.43
2018-03-23T10:37:54.509Z,99216.78
2018-03-23T10:40:56.518Z,99218.69
2018-03-23T10:43:57.807Z,99215.08
2018-03-23T10:46:59.050Z,99218.40
2018-03-23T10:50:00.326Z,99210.03
2018-03-23T10:53:02.383Z,99215.44
2018-03-23T10:56:03.664Z,99205.26
2018-03-23T10:59:05.005Z,99200.47
2018-03-23T11:02:07.023Z,99201.42
2018-03-23T11:05:08.280Z,99209.52
2018-03-23T11:08:09.625Z,99203.80
2018-03-23T11:11:10.896Z,99202.55
2018-03-23T11:14:12.155Z,99200.45
2018-03-23T11:17:13.399Z,99191.58
2018-03-23T11:20:14.679Z,99188.13
2018-03-23T11:23:15.954Z,99180.31
2018-03-23T11:26:17.264Z,99184.89
2018-03-23T11:29:19.251Z,99177.42
2018-03-23T11:32:21.264Z,99173.29
2018-03-23T11:35:22.555Z,99167.42
2018-03-23T11:38:23.823Z,99168.84
2018-03-23T11:41:25.090Z,99152.50
2018-03-23T11:44:26.397Z,99159.01
2018-03-23T11:47:27.612Z,99141.92
2018-03-23T11:50:28.840Z,99142.82
2018-03-23T11:53:30.134Z,99141.89
2018-03-23T11:56:31.404Z,99147.22
2018-03-23T11:59:32.684Z,99131.27
2018-03-23T12:02:33.944Z,99136.52
2018-03-23T12:05:36.053Z,99129.58
2018-03-23T12:08:38.057Z,99121.44
2018-03-23T12:11:39.315Z,99114.59
2018-03-23T12:14:40.580Z,99106.82
2018-03-23T12:17:41.841Z,99114.09
2018-03-23T12:20:43.107Z,99106.53
2018-03-23T12:23:44.379Z,99105.41
2018-03-23T12:26:45.616Z,99091.76
2018-03-23T12:29:47.639Z,99091.84
2018-03-23T12:32:48.877Z,99080.41
2018-03-23T12:35:50.216Z,99085.27
2018-03-23T12:38:52.226Z,99078.22
2018-03-23T12:41:53.499Z,99080.67
2018-03-23T12:44:54.732Z,99075.45
2018-03-23T12:47:56.719Z,99075.57
2018-03-23T12:50:58.100Z,99078.93
2018-03-23T12:53:59.326Z,99062.66
2018-03-23T12:57:01.413Z,99074.81
2018-03-23T13:00:03.427Z,99068.62
2018-03-23T13:03:04.686Z,99058.30
2018-03-23T13:06:06.040Z,99053.70
2018-03-23T13:09:08.111Z,99051.70
2018-03-23T13:12:10.108Z,99051.27
2018-03-23T13:15:11.571Z,99048.80
2018-03-23T13:18:12.904Z,99050.35
2018-03-23T13:21:14.160Z,99051.31
2018-03-23T13:24:15.520Z,99048.19
2018-03-23T13:27:16.784Z,99047.58
2018-03-23T13:30:18.198Z,99038.54
2018-03-23T13:33:19.421Z,99037.50
2018-03-23T13:36:20.807Z,99026.98
2018-03-23T13:39:22.875Z,99016.63
2018-03-23T13:42:24.111Z,99026.61
2018-03-23T13:45:25.376Z,99015.31
2018-03-23T13:48:26.684Z,99010.74
2018-03-23T13:51:28.751Z,99021.87
2018-03-23T13:54:30.005Z,99016.87
2018-03-23T13:57:31.265Z,99011.94
2018-03-23T14:00:38.635Z,99004.09
2018-03-23T14:03:39.935Z,99000.69
2018-03-23T14:06:41.344Z,98999.53
2018-03-23T14:09:42.603Z,98996.27
2018-03-23T14:12:43.895Z,98981.46
2018-03-23T14:15:45.127Z,98987.05
2018-03-23T14:18:47.105Z,98978.82
2018-03-23T14:21:49.109Z,98978.23
2018-03-23T14:24:50.344Z,98982.97
2018-03-23T14:27:52.322Z,98982.48
2018-03-23T14:30:54.785Z,98982.53
2018-03-23T14:33:56.063Z,98990.80
2018-03-23T14:36:57.295Z,98982.36
2018-03-23T14:39:58.547Z,98975.80
2018-03-23T14:42:59.853Z,98982.39
2018-03-23T14:46:01.086Z,98977.25
2018-03-23T14:49:02.355Z,98971.80
2018-03-23T14:52:03.646Z,98975.27
2018-03-23T14:55:04.895Z,98964.97
2018-03-23T14:58:06.181Z,98969.76
2018-03-23T15:01:08.171Z,98980.30
2018-03-23T15:04:10.160Z,98975.28
2018-03-23T15:07:11.383Z,98971.69
2018-03-23T15:10:12.608Z,98954.00
2018-03-23T15:13:13.902Z,98959.72
2018-03-23T15:16:15.179Z,98952.69
2018-03-23T15:19:16.453Z,98958.05
2018-03-23T15:22:18.425Z,98941.86
2018-03-23T15:25:19.645Z,98938.35
2018-03-23T15:28:21.065Z,98938.17
2018-03-23T15:31:23.055Z,98936.04
2018-03-23T15:34:24.322Z,98936.47
2018-03-23T15:37:25.558Z,98937.05
2018-03-23T15:40:26.834Z,98933.50
2018-03-23T15:43:28.806Z,98937.57
2018-03-23T15:46:30.154Z,98933.81
2018-03-23T15:49:31.368Z,98936.25
2018-03-23T15:52:32.599Z,98926.78
2018-03-23T15:55:33.832Z,98931.17
2018-03-23T15:58:35.115Z,98923.72
2018-03-23T16:01:36.350Z,98929.73
2018-03-23T16:04:37.583Z,98923.08
2018-03-23T16:07:38.883Z,98916.03
2018-03-23T16:10:40.117Z,98920.30
2018-03-23T16:13:41.373Z,98924.06
2018-03-23T16:16:42.633Z,98921.46
2018-03-23T16:19:43.888Z,98920.05
2018-03-23T16:22:48.163Z,98915.48
2018-03-23T16:25:49.441Z,98914.61
2018-03-23T16:28:50.707Z,98922.12
2018-03-23T16:31:51.952Z,98916.78
2018-03-23T16:34:53.176Z,98920.30
2018-03-23T16:37:54.460Z,98915.20
2018-03-23T16:40:55.758Z,98912.92
2018-03-23T16:43:57.011Z,98909.55
2018-03-23T16:46:58.258Z,98913.94
2018-03-23T16:49:59.569Z,98918.03
2018-03-23T16:53:00.843Z,98909.48
2018-03-23T16:56:02.891Z,98917.64
2018-03-23T16:59:04.170Z,98912.58
2018-03-23T17:02:05.419Z,98911.78
2018-03-23T17:05:06.695Z,98908.78
2018-03-23T17:08:07.964Z,98901.38
2018-03-23T17:11:09.219Z,98905.77
2018-03-23T17:14:10.498Z,98901.11
2018-03-23T17:17:12.563Z,98902.56
2018-03-23T17:20:13.856Z,98912.87
2018-03-23T17:23:15.100Z,98908.35
2018-03-23T17:26:16.385Z,98908.11
2018-03-23T17:29:17.643Z,98896.89
2018-03-23T17:32:19.608Z,98894.05
2018-03-23T17:35:20.975Z,98902.67
2018-03-23T17:38:22.983Z,98899.28
2018-03-23T17:41:24.285Z,98894.65
2018-03-23T17:44:25.578Z,98895.55
2018-03-23T17:47:26.879Z,98904.95
2018-03-23T17:50:28.140Z,98899.50
2018-03-23T17:53:29.403Z,98915.59
2018-03-23T17:56:30.675Z,98904.11
2018-03-23T17:59:31.912Z,98905.55
2018-03-23T18:02:33.964Z,98903.78
2018-03-23T18:05:35.524Z,98909.59
2018-03-23T18:08:36.779Z,98906.31
2018-03-23T18:11:38.079Z,98920.56
2018-03-23T18:14:39.344Z,98919.20
2018-03-23T18:17:40.579Z,98917.78
2018-03-23T18:20:41.857Z,98915.48
2018-03-23T18:23:43.140Z,98916.05
2018-03-23T18:26:45.131Z,98909.72
2018-03-23T18:29:47.159Z,98915.89
2018-03-23T18:32:48.414Z,98910.24
2018-03-23T18:35:50.006Z,98907.34
2018-03-23T18:38:51.274Z,98907.41
2018-03-23T18:41:52.527Z,98907.55
2018-03-23T18:44:53.782Z,98910.47
2018-03-23T18:47:55.042Z,98911.08
2018-03-23T18:50:56.322Z,98921.34
2018-03-23T18:53:57.618Z,98919.98
2018-03-23T18:56:59.621Z,98917.24
2018-03-23T19:00:00.887Z,98910.85
2018-03-23T19:03:02.174Z,98915.67
2018-03-23T19:06:03.491Z,98903.60
2018-03-23T19:09:05.511Z,98909.92
2018-03-23T19:12:06.772Z,98909.94
2018-03-23T19:15:08.056Z,98907.05
2018-03-23T19:18:09.299Z,98900.34
2018-03-23T19:21:10.566Z,98903.96
2018-03-23T19:24:11.843Z,98904.40
2018-03-23T19:27:13.107Z,98897.94
2018-03-23T19:30:14.520Z,98899.30
2018-03-23T19:33:17.078Z,98893.77
2018-03-23T19:36:18.419Z,98895.32
2018-03-23T19:39:19.703Z,98892.65
2018-03-23T19:42:20.994Z,98897.09
2018-03-23T19:45:22.287Z,98891.56
2018-03-23T19:48:23.582Z,98891.77
2018-03-23T19:51:24.915Z,98879.16
2018-03-23T19:54:26.175Z,98880.16
2018-03-23T19:57:27.476Z,98884.94
2018-03-23T20:00:28.789Z,98884.28
2018-03-23T20:03:30.066Z,98884.87
2018-03-23T20:06:31.369Z,98888.61
2018-03-23T20:09:32.671Z,98883.41
2018-03-23T20:12:33.934Z,98878.13
2018-03-23T20:15:35.963Z,98887.73
2018-03-23T20:18:38.109Z,98878.98
2018-03-23T20:21:40.131Z,98880.14
2018-03-23T20:24:41.409Z,98875.73
2018-03-23T20:27:48.707Z,98874.28
2018-03-23T20:30:50.110Z,98870.70
2018-03-23T20:33:51.344Z,98873.28
2018-03-23T20:36:52.615Z,98870.02
2018-03-23T20:39:53.939Z,98868.98
2018-03-23T20:42:55.218Z,98861.62
2018-03-23T20:45:56.480Z,98864.71
2018-03-23T20:48:57.789Z,98859.63
2018-03-23T20:51:59.143Z,98854.44
2018-03-23T20:55:00.416Z,98852.31
2018-03-23T20:58:01.702Z,98856.00
2018-03-23T21:01:03.731Z,98853.47
2018-03-23T21:04:05.006Z,98851.47
2018-03-23T21:07:06.314Z,98849.22
2018-03-23T21:10:08.347Z,98846.32
2018-03-23T21:13:09.618Z,98845.13
2018-03-23T21:16:10.860Z,98843.78
2018-03-23T21:19:12.088Z,98843.75
2018-03-23T21:22:14.064Z,98846.49
2018-03-23T21:25:16.044Z,98844.83
2018-03-23T21:28:18.061Z,98849.35
2018-03-23T21:31:19.339Z,98843.16
2018-03-23T21:34:20.606Z,98838.72
2018-03-23T21:37:21.885Z,98830.73
2018-03-23T21:40:23.131Z,98831.86
2018-03-23T21:43:25.151Z,98832.33
2018-03-23T21:46:27.134Z,98837.78
2018-03-23T21:49:29.150Z,98836.12
2018-03-23T21:52:30.433Z,98838.38
2018-03-23T21:55:31.730Z,98837.09
2018-03-23T21:58:32.993Z,98834.93
2018-03-23T22:01:34.244Z,98830.61
2018-03-23T22:04:35.481Z,98830.06
2018-03-23T22:07:36.789Z,98820.18
2018-03-23T22:10:38.039Z,98819.66
2018-03-23T22:13:40.092Z,98830.49
2018-03-23T22:16:41.340Z,98831.23
2018-03-23T22:19:42.580Z,98825.94
2018-03-23T22:22:44.604Z,98823.10
2018-03-23T22:25:45.828Z,98820.64
2018-03-23T22:28:47.063Z,98819.17
2018-03-23T22:31:48.310Z,98820.02
2018-03-23T22:34:49.598Z,98818.00
2018-03-23T22:37:51.592Z,98815.73
2018-03-23T22:40:53.567Z,98820.47
2018-03-23T22:43:55.557Z,98819.03
2018-03-23T22:46:56.784Z,98819.86
2018-03-23T22:49:58.008Z,98810.73
2018-03-23T22:52:59.239Z,98812.05
2018-03-23T22:56:00.499Z,98815.60
2018-03-23T22:59:01.771Z,98818.14
2018-03-23T23:02:03.034Z,98815.34
2018-03-23T23:05:04.284Z,98806.94
2018-03-23T23:08:06.292Z,98808.53
2018-03-23T23:11:07.535Z,98809.09
2018-03-23T23:14:09.531Z,98802.17
2018-03-23T23:17:10.783Z,98801.66
2018-03-23T23:20:12.785Z,98798.89
2018-03-23T23:23:14.023Z,98786.11
2018-03-23T23:26:15.263Z,98789.98
2018-03-23T23:29:17.248Z,98782.73
2018-03-23T23:32:18.468Z,98776.02
2018-03-23T23:35:19.720Z,98768.86
2018-03-23T23:38:20.952Z,98776.53
2018-03-23T23:41:22.932Z,98774.59
2018-03-23T23:44:24.904Z,98782.06
2018-03-23T23:47:26.899Z,98776.11
2018-03-23T23:50:28.131Z,98763.67
2018-03-23T23:53:29.401Z,98771.73
2018-03-23T23:56:31.432Z,98764.14
2018-03-23T23:59:32.664Z,98774.37
